createdAt,value
2023-05-07T00:02:02.336Z,59.85
2023-05-07T00:04:29.541Z,59.84
2023-05-07T00:06:56.730Z,59.81
2023-05-07T00:09:23.395Z,59.89
2023-05-07T00:11:49.991Z,59.89
2023-05-07T00:14:16.620Z,60.14
2023-05-07T00:16:43.319Z,60.05
2023-05-07T00:19:10.001Z,60.12
2023-05-07T00:21:36.625Z,60.16
2023-05-07T00:24:03.260Z,60.35
2023-05-07T00:26:29.899Z,60.29
2023-05-07T00:28:56.534Z,60.28
2023-05-07T00:31:23.115Z,60.40
2023-05-07T00:33:49.947Z,60.42
2023-05-07T00:36:16.535Z,60.41
2023-05-07T00:38:43.165Z,60.47
2023-05-07T00:41:09.792Z,60.48
2023-05-07T00:43:36.430Z,60.55
2023-05-07T00:46:03.169Z,60.56
2023-05-07T00:48:29.989Z,60.77
2023-05-07T00:50:58.021Z,60.74
2023-05-07T00:53:25.625Z,60.80
2023-05-07T00:55:52.233Z,60.75
2023-05-07T00:58:18.864Z,60.73
2023-05-07T01:00:45.390Z,60.80
2023-05-07T01:03:12.003Z,60.89
2023-05-07T01:05:39.387Z,60.89
2023-05-07T01:08:07.013Z,60.98
2023-05-07T01:10:33.745Z,60.82
2023-05-07T01:13:01.520Z,60.98
2023-05-07T01:15:28.570Z,61.14
2023-05-07T01:17:57.310Z,61.16
2023-05-07T01:20:29.367Z,61.30
2023-05-07T01:22:58.324Z,61.37
2023-05-07T01:25:25.552Z,61.23
2023-05-07T01:27:53.643Z,61.26
2023-05-07T01:30:23.484Z,61.35
2023-05-07T01:32:54.608Z,61.22
2023-05-07T01:35:26.036Z,61.51
2023-05-07T01:37:53.580Z,61.47
2023-05-07T01:40:20.289Z,61.35
2023-05-07T01:42:47.452Z,61.54
2023-05-07T01:45:14.012Z,61.48
2023-05-07T01:47:40.953Z,61.63
2023-05-07T01:50:09.844Z,61.51
2023-05-07T01:52:40.135Z,61.70
2023-05-07T01:55:07.149Z,61.76
2023-05-07T01:57:33.939Z,61.74
2023-05-07T02:00:00.565Z,61.76
2023-05-07T02:02:27.159Z,61.77
2023-05-07T02:04:54.675Z,61.91
2023-05-07T02:07:22.639Z,61.91
2023-05-07T02:09:49.788Z,61.78
2023-05-07T02:12:16.354Z,61.84
2023-05-07T02:14:43.340Z,61.80
2023-05-07T02:17:15.975Z,61.95
2023-05-07T02:19:42.600Z,62.01
2023-05-07T02:22:10.990Z,61.95
2023-05-07T02:24:37.511Z,61.93
2023-05-07T02:27:05.972Z,61.91
2023-05-07T02:29:33.644Z,61.96
2023-05-07T02:32:00.306Z,62.04
2023-05-07T02:34:26.942Z,62.09
2023-05-07T02:36:53.522Z,62.09
2023-05-07T02:39:22.801Z,62.18
2023-05-07T02:41:49.331Z,62.21
2023-05-07T02:44:16.132Z,62.24
2023-05-07T02:46:43.689Z,62.29
2023-05-07T02:49:11.461Z,62.33
2023-05-07T02:51:38.300Z,62.30
2023-05-07T02:54:08.469Z,62.46
2023-05-07T02:56:35.111Z,62.41
2023-05-07T02:59:01.714Z,62.33
2023-05-07T03:01:31.157Z,62.45
2023-05-07T03:04:06.137Z,62.32
2023-05-07T03:06:32.779Z,62.40
2023-05-07T03:08:59.504Z,62.51
2023-05-07T03:11:26.412Z,62.49
2023-05-07T03:13:52.977Z,62.53
2023-05-07T03:16:20.174Z,62.48
2023-05-07T03:18:46.741Z,62.62
2023-05-07T03:21:13.328Z,62.61
2023-05-07T03:23:39.868Z,62.52
2023-05-07T03:26:06.452Z,62.64
2023-05-07T03:28:32.957Z,62.70
2023-05-07T03:31:02.189Z,62.56
2023-05-07T03:33:29.473Z,62.73
2023-05-07T03:35:56.089Z,62.65
2023-05-07T03:38:24.175Z,62.67
2023-05-07T03:40:51.088Z,62.66
2023-05-07T03:43:17.844Z,62.80
2023-05-07T03:45:48.049Z,62.83
2023-05-07T03:48:18.471Z,62.90
2023-05-07T03:50:45.643Z,62.78
2023-05-07T03:53:12.634Z,62.82
2023-05-07T03:55:39.839Z,62.75
2023-05-07T03:58:06.575Z,62.84
2023-05-07T04:00:38.019Z,62.85
2023-05-07T04:03:07.987Z,62.82
2023-05-07T04:05:34.772Z,62.94
2023-05-07T04:08:03.188Z,63.07
2023-05-07T04:10:37.680Z,62.91
2023-05-07T04:13:07.716Z,62.92
2023-05-07T04:15:34.805Z,62.98
2023-05-07T04:18:01.462Z,62.96
2023-05-07T04:20:28.105Z,63.01
2023-05-07T04:22:59.387Z,62.92
2023-05-07T04:25:27.652Z,63.09
2023-05-07T04:27:58.209Z,62.84
2023-05-07T04:30:26.467Z,62.90
2023-05-07T04:32:53.891Z,62.93
2023-05-07T04:35:20.617Z,63.04
2023-05-07T04:37:47.164Z,63.05
2023-05-07T04:40:14.262Z,63.12
2023-05-07T04:42:41.552Z,63.11
2023-05-07T04:45:09.718Z,63.09
2023-05-07T04:47:37.721Z,63.06
2023-05-07T04:50:04.493Z,63.07
2023-05-07T04:52:31.192Z,63.06
2023-05-07T04:55:02.315Z,63.25
2023-05-07T04:57:30.766Z,63.24
2023-05-07T04:59:58.844Z,63.06
2023-05-07T05:02:25.921Z,63.12
2023-05-07T05:04:52.778Z,63.08
2023-05-07T05:07:19.826Z,63.16
2023-05-07T05:09:46.366Z,63.06
2023-05-07T05:12:13.002Z,63.12
2023-05-07T05:14:39.661Z,63.13
2023-05-07T05:17:13.612Z,63.17
2023-05-07T05:19:40.204Z,63.28
2023-05-07T05:22:06.865Z,63.09
2023-05-07T05:24:33.926Z,63.12
2023-05-07T05:27:02.398Z,63.22
2023-05-07T05:29:29.703Z,63.32
2023-05-07T05:31:56.688Z,63.29
2023-05-07T05:34:24.038Z,63.29
2023-05-07T05:36:50.981Z,63.33
2023-05-07T05:39:18.230Z,63.35
2023-05-07T05:41:45.218Z,63.31
2023-05-07T05:44:16.014Z,63.17
2023-05-07T05:46:43.298Z,63.20
2023-05-07T05:49:09.918Z,63.08
2023-05-07T05:51:36.867Z,63.20
2023-05-07T05:54:03.687Z,63.24
2023-05-07T05:56:31.636Z,63.18
2023-05-07T05:58:58.632Z,63.01
2023-05-07T06:01:25.434Z,62.92
2023-05-07T06:03:53.147Z,62.84
2023-05-07T06:06:20.220Z,62.93
2023-05-07T06:08:46.927Z,62.90
2023-05-07T06:11:16.322Z,62.77
2023-05-07T06:13:44.756Z,62.77
2023-05-07T06:16:11.838Z,62.75
2023-05-07T06:18:38.485Z,62.76
2023-05-07T06:21:05.523Z,62.56
2023-05-07T06:23:32.708Z,62.43
2023-05-07T06:25:59.626Z,62.54
2023-05-07T06:28:31.882Z,62.62
2023-05-07T06:31:12.820Z,62.41
2023-05-07T06:33:40.486Z,62.24
2023-05-07T06:36:07.828Z,62.07
2023-05-07T06:38:35.053Z,61.97
2023-05-07T06:41:01.683Z,62.07
2023-05-07T06:43:28.368Z,62.09
2023-05-07T06:46:02.645Z,61.91
2023-05-07T06:48:29.738Z,61.62
2023-05-07T06:51:00.840Z,61.60
2023-05-07T06:53:27.582Z,61.61
2023-05-07T06:55:55.016Z,61.38
2023-05-07T06:58:21.640Z,61.30
2023-05-07T07:00:48.433Z,61.61
2023-05-07T07:03:15.154Z,61.55
2023-05-07T07:05:42.974Z,61.26
2023-05-07T07:08:09.711Z,61.05
2023-05-07T07:10:37.089Z,60.87
2023-05-07T07:13:03.891Z,60.85
2023-05-07T07:15:30.611Z,61.13
2023-05-07T07:17:57.476Z,60.94
2023-05-07T07:20:24.581Z,60.85
2023-05-07T07:22:51.443Z,60.94
2023-05-07T07:25:18.394Z,60.97
2023-05-07T07:27:46.007Z,60.88
2023-05-07T07:30:13.289Z,60.79
2023-05-07T07:32:41.033Z,60.64
2023-05-07T07:35:08.548Z,60.43
2023-05-07T07:37:36.037Z,60.53
2023-05-07T07:40:02.830Z,60.47
2023-05-07T07:42:30.319Z,60.64
2023-05-07T07:44:58.223Z,60.57
2023-05-07T07:47:25.518Z,60.66
2023-05-07T07:49:52.775Z,60.47
2023-05-07T07:52:19.944Z,60.34
2023-05-07T07:54:46.762Z,60.33
2023-05-07T07:57:13.558Z,60.22
2023-05-07T07:59:40.579Z,59.72
2023-05-07T08:02:07.590Z,59.76
2023-05-07T08:04:35.259Z,59.69
2023-05-07T08:07:04.993Z,59.40
2023-05-07T08:09:32.887Z,59.17
2023-05-07T08:12:00.207Z,59.12
2023-05-07T08:14:26.989Z,59.25
2023-05-07T08:16:53.855Z,59.26
2023-05-07T08:19:21.177Z,59.45
2023-05-07T08:21:48.846Z,59.05
2023-05-07T08:24:16.427Z,59.04
2023-05-07T08:26:43.326Z,59.17
2023-05-07T08:29:10.642Z,59.22
2023-05-07T08:31:37.311Z,59.10
2023-05-07T08:34:04.479Z,59.13
2023-05-07T08:36:30.979Z,59.09
2023-05-07T08:38:57.826Z,59.16
2023-05-07T08:41:24.492Z,59.23
2023-05-07T08:43:52.698Z,58.84
2023-05-07T08:46:22.530Z,58.79
2023-05-07T08:48:50.582Z,58.97
2023-05-07T08:51:21.582Z,59.08
2023-05-07T08:53:49.756Z,59.09
2023-05-07T08:56:22.471Z,58.91
2023-05-07T08:58:49.997Z,58.91
2023-05-07T09:01:17.998Z,59.21
2023-05-07T09:03:47.915Z,59.06
2023-05-07T09:06:15.425Z,58.80
2023-05-07T09:08:42.272Z,58.81
2023-05-07T09:11:09.095Z,58.77
2023-05-07T09:13:36.849Z,59.22
2023-05-07T09:16:13.706Z,58.52
2023-05-07T09:18:45.739Z,57.75
2023-05-07T09:21:16.918Z,57.46
2023-05-07T09:23:43.974Z,57.33
2023-05-07T09:26:12.953Z,57.37
2023-05-07T09:28:43.753Z,57.31
2023-05-07T09:31:12.686Z,57.31
2023-05-07T09:33:40.700Z,57.48
2023-05-07T09:36:10.980Z,57.24
2023-05-07T09:38:39.557Z,57.40
2023-05-07T09:41:09.005Z,57.45
2023-05-07T09:43:42.033Z,57.35
2023-05-07T09:46:13.442Z,57.58
2023-05-07T09:48:42.841Z,57.57
2023-05-07T09:51:28.172Z,57.45
2023-05-07T09:53:55.176Z,56.77
2023-05-07T09:56:22.379Z,56.72
2023-05-07T09:58:52.516Z,56.73
2023-05-07T10:01:23.034Z,56.82
2023-05-07T10:03:52.238Z,56.89
2023-05-07T10:06:21.133Z,56.90
2023-05-07T10:08:48.303Z,56.70
2023-05-07T10:11:16.712Z,56.58
2023-05-07T10:13:44.670Z,56.60
2023-05-07T10:16:11.752Z,56.66
2023-05-07T10:18:46.900Z,56.63
2023-05-07T10:21:24.111Z,56.58
2023-05-07T10:24:01.081Z,56.73
2023-05-07T10:26:30.967Z,56.75
2023-05-07T10:29:04.584Z,56.77
2023-05-07T10:31:52.043Z,56.86
2023-05-07T10:34:24.244Z,56.72
2023-05-07T10:36:52.932Z,56.75
2023-05-07T10:39:21.940Z,56.79
2023-05-07T10:41:49.449Z,56.66
2023-05-07T10:44:30.014Z,56.76
2023-05-07T10:47:19.858Z,56.85
2023-05-07T10:49:48.419Z,56.71
2023-05-07T10:52:27.691Z,56.66
2023-05-07T10:55:26.691Z,56.60
2023-05-07T10:58:31.416Z,56.53
2023-05-07T11:01:51.762Z,56.49
2023-05-07T11:04:25.706Z,56.48
2023-05-07T11:07:09.346Z,56.62
2023-05-07T11:09:52.528Z,56.89
2023-05-07T11:12:36.931Z,56.73
2023-05-07T11:15:12.398Z,56.63
2023-05-07T11:17:57.085Z,56.25
2023-05-07T11:20:51.939Z,56.18
2023-05-07T11:23:34.584Z,55.96
2023-05-07T11:26:13.714Z,56.10
2023-05-07T11:28:42.832Z,56.34
2023-05-07T11:31:11.547Z,56.71
2023-05-07T11:33:39.669Z,57.15
2023-05-07T11:36:09.268Z,57.21
2023-05-07T11:38:40.350Z,56.77
2023-05-07T11:41:08.353Z,56.32
2023-05-07T11:43:36.751Z,55.98
2023-05-07T11:46:11.601Z,55.80
2023-05-07T11:48:39.785Z,55.59
2023-05-07T11:51:10.095Z,55.63
2023-05-07T11:53:42.242Z,55.50
2023-05-07T11:56:09.612Z,55.53
2023-05-07T11:58:36.494Z,55.62
2023-05-07T12:01:03.461Z,55.60
2023-05-07T12:03:32.071Z,55.56
2023-05-07T12:06:02.523Z,55.36
2023-05-07T12:08:29.062Z,55.27
2023-05-07T12:10:55.769Z,55.47
2023-05-07T12:13:24.721Z,55.94
2023-05-07T12:15:53.396Z,56.00
2023-05-07T12:18:21.610Z,55.77
2023-05-07T12:20:48.518Z,55.87
2023-05-07T12:23:16.185Z,55.55
2023-05-07T12:25:47.725Z,55.69
2023-05-07T12:28:19.396Z,55.02
2023-05-07T12:30:51.769Z,54.65
2023-05-07T12:33:20.248Z,54.23
2023-05-07T12:35:48.897Z,54.37
2023-05-07T12:38:18.243Z,54.10
2023-05-07T12:40:46.414Z,53.80
2023-05-07T12:43:26.232Z,53.82
2023-05-07T12:45:55.773Z,53.55
2023-05-07T12:48:23.538Z,53.17
2023-05-07T12:51:02.545Z,53.31
2023-05-07T12:53:30.774Z,53.51
2023-05-07T12:56:00.561Z,53.63
2023-05-07T12:58:33.718Z,52.93
2023-05-07T13:01:02.634Z,52.88
2023-05-07T13:03:32.364Z,53.20
2023-05-07T13:06:19.332Z,53.16
2023-05-07T13:08:46.095Z,52.28
2023-05-07T13:11:13.778Z,52.31
2023-05-07T13:13:42.157Z,52.65
2023-05-07T13:16:11.235Z,52.41
2023-05-07T13:18:41.325Z,52.38
2023-05-07T13:21:08.464Z,52.72
2023-05-07T13:23:35.151Z,53.43
2023-05-07T13:26:08.567Z,53.34
2023-05-07T13:28:41.661Z,53.04
2023-05-07T13:31:08.394Z,53.14
2023-05-07T13:33:35.070Z,52.42
2023-05-07T13:36:02.062Z,52.13
2023-05-07T13:38:28.667Z,51.75
2023-05-07T13:40:55.429Z,51.80
2023-05-07T13:43:21.911Z,51.46
2023-05-07T13:45:48.531Z,51.50
2023-05-07T13:48:15.209Z,51.20
2023-05-07T13:50:41.841Z,51.96
2023-05-07T13:53:09.453Z,52.24
2023-05-07T13:55:36.168Z,52.18
2023-05-07T13:58:06.937Z,51.53
2023-05-07T14:00:34.047Z,51.08
2023-05-07T14:03:00.814Z,50.89
2023-05-07T14:05:30.478Z,50.40
2023-05-07T14:07:59.082Z,50.45
2023-05-07T14:10:26.272Z,50.50
2023-05-07T14:12:53.771Z,50.92
2023-05-07T14:15:20.498Z,50.82
2023-05-07T14:17:47.882Z,50.83
2023-05-07T14:20:14.738Z,50.97
2023-05-07T14:22:41.794Z,51.27
2023-05-07T14:25:10.806Z,51.31
2023-05-07T14:27:37.764Z,50.77
2023-05-07T14:30:04.907Z,50.35
2023-05-07T14:32:31.507Z,49.99
2023-05-07T14:34:58.127Z,49.91
2023-05-07T14:37:25.214Z,50.07
2023-05-07T14:39:51.826Z,50.00
2023-05-07T14:42:18.756Z,49.99
2023-05-07T14:44:46.658Z,50.25
2023-05-07T14:47:14.028Z,49.96
2023-05-07T14:49:41.830Z,50.22
2023-05-07T14:52:11.097Z,49.91
2023-05-07T14:54:39.226Z,50.11
2023-05-07T14:57:07.431Z,50.06
2023-05-07T14:59:34.390Z,50.14
2023-05-07T15:02:02.475Z,49.90
2023-05-07T15:04:30.660Z,50.08
2023-05-07T15:06:57.211Z,50.19
2023-05-07T15:09:23.771Z,50.07
2023-05-07T15:11:50.358Z,50.01
2023-05-07T15:14:16.969Z,50.04
2023-05-07T15:16:43.605Z,50.30
2023-05-07T15:19:10.282Z,50.39
2023-05-07T15:21:37.334Z,50.03
2023-05-07T15:24:04.105Z,49.89
2023-05-07T15:26:31.178Z,49.94
2023-05-07T15:28:58.292Z,49.94
2023-05-07T15:31:26.682Z,49.99
2023-05-07T15:33:53.388Z,49.80
2023-05-07T15:36:21.390Z,49.71
2023-05-07T15:38:48.106Z,49.65
2023-05-07T15:41:15.099Z,49.57
2023-05-07T15:43:46.983Z,49.70
2023-05-07T15:46:13.705Z,49.87
2023-05-07T15:48:41.346Z,49.82
2023-05-07T15:51:09.036Z,49.83
2023-05-07T15:53:35.838Z,49.67
2023-05-07T15:56:02.456Z,49.63
2023-05-07T15:58:29.072Z,49.61
2023-05-07T16:00:56.358Z,49.33
2023-05-07T16:03:23.655Z,49.39
2023-05-07T16:05:50.572Z,49.42
2023-05-07T16:08:17.248Z,49.37
2023-05-07T16:10:43.829Z,49.33
2023-05-07T16:13:10.371Z,49.47
2023-05-07T16:15:37.099Z,49.33
2023-05-07T16:18:04.653Z,49.22
2023-05-07T16:20:31.566Z,49.44
2023-05-07T16:22:58.785Z,49.39
2023-05-07T16:25:25.584Z,49.21
2023-05-07T16:27:54.844Z,49.15
2023-05-07T16:30:21.504Z,49.19
2023-05-07T16:32:48.196Z,49.33
2023-05-07T16:35:15.280Z,49.32
2023-05-07T16:37:42.083Z,49.06
2023-05-07T16:40:10.596Z,49.28
2023-05-07T16:42:37.355Z,49.45
2023-05-07T16:45:07.138Z,49.41
2023-05-07T16:47:33.829Z,49.31
2023-05-07T16:50:00.789Z,49.55
2023-05-07T16:52:30.030Z,49.60
2023-05-07T16:55:00.792Z,49.47
2023-05-07T16:57:29.195Z,49.50
2023-05-07T16:59:57.072Z,49.48
2023-05-07T17:02:23.840Z,49.53
2023-05-07T17:04:50.557Z,49.39
2023-05-07T17:07:17.303Z,49.31
2023-05-07T17:09:43.875Z,49.46
2023-05-07T17:12:10.512Z,49.39
2023-05-07T17:14:37.202Z,49.19
2023-05-07T17:17:03.822Z,49.32
2023-05-07T17:19:30.789Z,49.28
2023-05-07T17:21:57.613Z,49.22
2023-05-07T17:24:24.289Z,49.37
2023-05-07T17:26:50.898Z,49.42
2023-05-07T17:29:20.610Z,49.47
2023-05-07T17:31:49.291Z,49.62
2023-05-07T17:34:15.917Z,49.73
2023-05-07T17:36:42.579Z,49.77
2023-05-07T17:39:09.143Z,50.03
2023-05-07T17:41:36.717Z,49.91
2023-05-07T17:44:03.861Z,50.02
2023-05-07T17:46:30.723Z,50.19
2023-05-07T17:48:57.987Z,50.14
2023-05-07T17:51:26.179Z,50.13
2023-05-07T17:53:52.729Z,50.25
2023-05-07T17:56:19.357Z,50.35
2023-05-07T17:58:58.771Z,50.48
2023-05-07T18:01:26.297Z,50.51
2023-05-07T18:03:53.305Z,50.53
2023-05-07T18:06:21.996Z,50.66
2023-05-07T18:08:49.259Z,50.73
2023-05-07T18:11:16.149Z,50.86
2023-05-07T18:13:42.719Z,50.88
2023-05-07T18:16:09.925Z,50.81
2023-05-07T18:18:36.863Z,50.93
2023-05-07T18:21:04.136Z,51.22
2023-05-07T18:23:30.909Z,51.28
2023-05-07T18:25:57.645Z,51.26
2023-05-07T18:28:25.423Z,51.36
2023-05-07T18:30:52.198Z,51.53
2023-05-07T18:33:18.841Z,51.60
2023-05-07T18:35:45.499Z,51.71
2023-05-07T18:38:12.100Z,51.83
2023-05-07T18:40:44.101Z,51.83
2023-05-07T18:43:11.124Z,51.85
2023-05-07T18:45:40.648Z,51.93
2023-05-07T18:48:07.702Z,51.88
2023-05-07T18:50:34.700Z,52.05
2023-05-07T18:53:01.865Z,51.98
2023-05-07T18:55:28.675Z,51.98
2023-05-07T18:57:55.389Z,52.19
2023-05-07T19:00:22.134Z,52.38
2023-05-07T19:02:48.901Z,52.43
2023-05-07T19:05:15.609Z,52.44
2023-05-07T19:07:42.273Z,52.51
2023-05-07T19:10:09.209Z,52.58
2023-05-07T19:12:35.907Z,52.59
2023-05-07T19:15:02.494Z,52.68
2023-05-07T19:17:29.283Z,52.85
2023-05-07T19:19:55.943Z,52.99
2023-05-07T19:22:22.739Z,53.00
2023-05-07T19:24:49.403Z,53.04
2023-05-07T19:27:16.044Z,53.22
2023-05-07T19:29:43.405Z,53.26
2023-05-07T19:32:10.299Z,53.38
2023-05-07T19:34:37.074Z,53.47
2023-05-07T19:37:05.559Z,53.57
2023-05-07T19:39:32.286Z,53.78
2023-05-07T19:41:59.023Z,53.74
2023-05-07T19:44:25.989Z,53.77
2023-05-07T19:46:52.755Z,53.79
2023-05-07T19:49:19.611Z,53.82
2023-05-07T19:51:46.239Z,53.89
2023-05-07T19:54:13.274Z,54.03
2023-05-07T19:56:41.954Z,54.04
2023-05-07T19:59:08.744Z,54.09
2023-05-07T20:01:36.275Z,54.16
2023-05-07T20:04:03.247Z,54.33
2023-05-07T20:06:30.091Z,54.26
2023-05-07T20:08:57.046Z,54.45
2023-05-07T20:11:23.664Z,54.50
2023-05-07T20:13:50.271Z,54.52
2023-05-07T20:16:17.066Z,54.74
2023-05-07T20:18:44.082Z,54.79
2023-05-07T20:21:10.795Z,54.82
2023-05-07T20:23:37.458Z,54.77
2023-05-07T20:26:04.049Z,54.99
2023-05-07T20:28:30.706Z,55.01
2023-05-07T20:30:57.236Z,55.15
2023-05-07T20:33:24.093Z,55.22
2023-05-07T20:35:50.687Z,55.26
2023-05-07T20:38:17.327Z,55.36
2023-05-07T20:40:44.438Z,55.53
2023-05-07T20:43:11.262Z,55.51
2023-05-07T20:45:38.186Z,55.52
2023-05-07T20:48:05.162Z,55.55
2023-05-07T20:50:32.204Z,55.51
2023-05-07T20:52:58.801Z,55.72
2023-05-07T20:55:27.598Z,55.76
2023-05-07T20:57:54.648Z,55.76
2023-05-07T21:00:21.458Z,55.81
2023-05-07T21:02:48.848Z,55.87
2023-05-07T21:05:15.965Z,56.02
2023-05-07T21:07:45.750Z,55.92
2023-05-07T21:10:13.604Z,55.96
2023-05-07T21:12:40.748Z,56.11
2023-05-07T21:15:08.705Z,56.08
2023-05-07T21:17:35.690Z,56.17
2023-05-07T21:20:03.962Z,56.26
2023-05-07T21:22:31.194Z,56.22
2023-05-07T21:24:57.925Z,56.31
2023-05-07T21:27:24.641Z,56.39
2023-05-07T21:29:51.327Z,56.55
2023-05-07T21:32:17.957Z,56.51
2023-05-07T21:34:44.671Z,56.59
2023-05-07T21:37:11.802Z,56.64
2023-05-07T21:39:38.994Z,56.74
2023-05-07T21:42:05.801Z,56.76
2023-05-07T21:44:32.555Z,56.81
2023-05-07T21:46:59.395Z,56.88
2023-05-07T21:49:26.237Z,56.90
2023-05-07T21:51:52.916Z,56.82
2023-05-07T21:54:19.937Z,56.90
2023-05-07T21:56:48.174Z,56.99
2023-05-07T21:59:16.876Z,57.04
2023-05-07T22:01:43.688Z,57.01
2023-05-07T22:04:11.267Z,57.19
2023-05-07T22:06:38.017Z,57.14
2023-05-07T22:09:04.588Z,57.22
2023-05-07T22:11:31.224Z,57.39
2023-05-07T22:13:57.856Z,57.36
2023-05-07T22:16:24.524Z,57.42
2023-05-07T22:18:51.552Z,57.37
2023-05-07T22:21:18.127Z,57.56
2023-05-07T22:23:44.850Z,57.47
2023-05-07T22:26:12.933Z,57.63
2023-05-07T22:28:42.480Z,57.66
2023-05-07T22:31:09.202Z,57.61
2023-05-07T22:33:36.077Z,57.69
2023-05-07T22:36:03.008Z,57.85
2023-05-07T22:38:29.606Z,57.86
2023-05-07T22:40:56.297Z,57.90
2023-05-07T22:43:22.948Z,57.98
2023-05-07T22:45:49.637Z,57.96
2023-05-07T22:48:16.426Z,57.91
2023-05-07T22:50:43.036Z,57.84
2023-05-07T22:53:09.627Z,57.99
2023-05-07T22:55:36.189Z,58.12
2023-05-07T22:58:02.991Z,58.14
2023-05-07T23:00:29.635Z,58.16
2023-05-07T23:02:56.400Z,58.14
2023-05-07T23:05:23.641Z,58.18
2023-05-07T23:07:51.301Z,58.24
2023-05-07T23:10:21.772Z,58.31
2023-05-07T23:12:51.741Z,58.39
2023-05-07T23:15:22.548Z,58.40
2023-05-07T23:17:49.184Z,58.40
2023-05-07T23:20:16.083Z,58.55
2023-05-07T23:22:42.964Z,58.55
2023-05-07T23:25:09.742Z,58.71
2023-05-07T23:27:36.369Z,58.56
2023-05-07T23:30:03.672Z,58.83
2023-05-07T23:32:33.553Z,58.82
2023-05-07T23:35:00.208Z,58.83
2023-05-07T23:37:27.436Z,58.71
2023-05-07T23:39:54.594Z,58.77
2023-05-07T23:42:21.625Z,58.78
2023-05-07T23:44:48.285Z,58.88
2023-05-07T23:47:14.884Z,58.79
2023-05-07T23:49:41.510Z,59.05
2023-05-07T23:52:08.081Z,59.05
2023-05-07T23:54:34.782Z,58.96
2023-05-07T23:57:01.388Z,59.03
2023-05-07T23:59:28.774Z,59.17
